sensor_id;sensor_type;location;lat;lon;timestamp;P1;durP1;ratioP1;P2;durP2;ratioP2
67272;SDS011;54190;49.770;9.250;2022-11-20T00:01:18;31.70;;;18.30;;
67272;SDS011;54190;49.770;9.250;2022-11-20T00:03:45;30.80;;;17.90;;
67272;SDS011;54190;49.770;9.250;2022-11-20T00:06:12;30.90;;;17.20;;
67272;SDS011;54190;49.770;9.250;2022-11-20T00:08:39;33.37;;;19.33;;
67272;SDS011;54190;49.770;9.250;2022-11-20T00:11:05;28.83;;;17.10;;
67272;SDS011;54190;49.770;9.250;2022-11-20T00:13:39;30.07;;;16.57;;
67272;SDS011;54190;49.770;9.250;2022-11-20T00:16:06;30.53;;;17.97;;
67272;SDS011;54190;49.770;9.250;2022-11-20T00:18:34;26.80;;;16.10;;
67272;SDS011;54190;49.770;9.250;2022-11-20T00:21:01;28.30;;;17.50;;
67272;SDS011;54190;49.770;9.250;2022-11-20T00:23:37;27.03;;;15.70;;
67272;SDS011;54190;49.770;9.250;2022-11-20T00:26:03;29.17;;;17.87;;
67272;SDS011;54190;49.770;9.250;2022-11-20T00:28:34;26.03;;;14.70;;
67272;SDS011;54190;49.770;9.250;2022-11-20T00:31:07;24.77;;;14.10;;
67272;SDS011;54190;49.770;9.250;2022-11-20T00:33:35;24.80;;;16.10;;
67272;SDS011;54190;49.770;9.250;2022-11-20T00:36:05;25.23;;;14.37;;
67272;SDS011;54190;49.770;9.250;2022-11-20T00:38:32;31.30;;;15.87;;
67272;SDS011;54190;49.770;9.250;2022-11-20T00:41:02;23.67;;;15.10;;
67272;SDS011;54190;49.770;9.250;2022-11-20T00:43:30;27.90;;;14.87;;
67272;SDS011;54190;49.770;9.250;2022-11-20T00:45:57;29.23;;;15.57;;
67272;SDS011;54190;49.770;9.250;2022-11-20T00:48:22;27.80;;;15.40;;
67272;SDS011;54190;49.770;9.250;2022-11-20T00:50:48;28.60;;;15.90;;
67272;SDS011;54190;49.770;9.250;2022-11-20T00:53:14;26.77;;;15.00;;
67272;SDS011;54190;49.770;9.250;2022-11-20T00:55:39;24.90;;;15.00;;
67272;SDS011;54190;49.770;9.250;2022-11-20T00:58:06;27.33;;;16.53;;
67272;SDS011;54190;49.770;9.250;2022-11-20T01:00:31;27.00;;;16.60;;
67272;SDS011;54190;49.770;9.250;2022-11-20T01:02:57;27.90;;;15.60;;
67272;SDS011;54190;49.770;9.250;2022-11-20T01:05:23;25.37;;;13.70;;
67272;SDS011;54190;49.770;9.250;2022-11-20T01:07:48;26.43;;;15.07;;
67272;SDS011;54190;49.770;9.250;2022-11-20T01:10:14;25.40;;;15.37;;
67272;SDS011;54190;49.770;9.250;2022-11-20T01:12:39;28.63;;;17.13;;
67272;SDS011;54190;49.770;9.250;2022-11-20T01:15:05;28.37;;;15.10;;
67272;SDS011;54190;49.770;9.250;2022-11-20T01:17:32;32.30;;;16.07;;
67272;SDS011;54190;49.770;9.250;2022-11-20T01:19:57;23.93;;;14.87;;
67272;SDS011;54190;49.770;9.250;2022-11-20T01:22:23;26.20;;;14.57;;
67272;SDS011;54190;49.770;9.250;2022-11-20T01:24:52;25.27;;;15.17;;
67272;SDS011;54190;49.770;9.250;2022-11-20T01:27:17;24.97;;;14.13;;
67272;SDS011;54190;49.770;9.250;2022-11-20T01:29:43;25.53;;;15.20;;
67272;SDS011;54190;49.770;9.250;2022-11-20T01:32:08;25.10;;;15.30;;
67272;SDS011;54190;49.770;9.250;2022-11-20T01:34:34;26.03;;;14.20;;
67272;SDS011;54190;49.770;9.250;2022-11-20T01:37:00;27.97;;;15.70;;
67272;SDS011;54190;49.770;9.250;2022-11-20T01:39:25;25.73;;;15.57;;
67272;SDS011;54190;49.770;9.250;2022-11-20T01:41:52;21.90;;;13.33;;
67272;SDS011;54190;49.770;9.250;2022-11-20T01:47:20;24.90;;;14.80;;
67272;SDS011;54190;49.770;9.250;2022-11-20T01:49:51;22.83;;;13.83;;
67272;SDS011;54190;49.770;9.250;2022-11-20T01:52:32;23.30;;;14.20;;
67272;SDS011;54190;49.770;9.250;2022-11-20T01:55:13;23.63;;;14.17;;
67272;SDS011;54190;49.770;9.250;2022-11-20T01:57:44;23.50;;;13.70;;
67272;SDS011;54190;49.770;9.250;2022-11-20T02:00:11;26.60;;;15.40;;
67272;SDS011;54190;49.770;9.250;2022-11-20T02:02:40;24.17;;;14.47;;
67272;SDS011;54190;49.770;9.250;2022-11-20T02:07:49;23.37;;;14.43;;
67272;SDS011;54190;49.770;9.250;2022-11-20T02:10:15;24.57;;;14.20;;
67272;SDS011;54190;49.770;9.250;2022-11-20T02:12:41;22.57;;;14.37;;
67272;SDS011;54190;49.770;9.250;2022-11-20T02:15:25;27.30;;;15.80;;
67272;SDS011;54190;49.770;9.250;2022-11-20T02:17:51;26.53;;;15.07;;
67272;SDS011;54190;49.770;9.250;2022-11-20T02:20:16;26.23;;;15.80;;
67272;SDS011;54190;49.770;9.250;2022-11-20T02:23:04;28.43;;;16.27;;
67272;SDS011;54190;49.770;9.250;2022-11-20T02:25:37;25.63;;;15.07;;
67272;SDS011;54190;49.770;9.250;2022-11-20T02:28:05;28.00;;;15.97;;
67272;SDS011;54190;49.770;9.250;2022-11-20T02:30:31;24.40;;;14.50;;
67272;SDS011;54190;49.770;9.250;2022-11-20T02:32:57;23.60;;;14.00;;
67272;SDS011;54190;49.770;9.250;2022-11-20T02:37:49;24.83;;;14.77;;
67272;SDS011;54190;49.770;9.250;2022-11-20T02:40:18;26.03;;;15.20;;
67272;SDS011;54190;49.770;9.250;2022-11-20T02:42:44;23.70;;;14.50;;
67272;SDS011;54190;49.770;9.250;2022-11-20T02:45:10;26.17;;;14.93;;
67272;SDS011;54190;49.770;9.250;2022-11-20T02:47:36;27.10;;;14.67;;
67272;SDS011;54190;49.770;9.250;2022-11-20T02:50:02;25.50;;;14.97;;
67272;SDS011;54190;49.770;9.250;2022-11-20T02:52:28;26.07;;;14.97;;
67272;SDS011;54190;49.770;9.250;2022-11-20T02:54:55;23.43;;;13.93;;
67272;SDS011;54190;49.770;9.250;2022-11-20T02:57:20;24.67;;;14.30;;
67272;SDS011;54190;49.770;9.250;2022-11-20T02:59:46;25.70;;;15.20;;
67272;SDS011;54190;49.770;9.250;2022-11-20T03:02:11;28.90;;;15.53;;
67272;SDS011;54190;49.770;9.250;2022-11-20T03:04:37;24.37;;;13.97;;
67272;SDS011;54190;49.770;9.250;2022-11-20T03:07:04;27.03;;;15.10;;
67272;SDS011;54190;49.770;9.250;2022-11-20T03:09:30;26.23;;;14.30;;
67272;SDS011;54190;49.770;9.250;2022-11-20T03:11:56;26.57;;;14.90;;
67272;SDS011;54190;49.770;9.250;2022-11-20T03:14:21;26.53;;;16.03;;
67272;SDS011;54190;49.770;9.250;2022-11-20T03:16:47;25.10;;;14.73;;
67272;SDS011;54190;49.770;9.250;2022-11-20T03:19:13;25.47;;;16.13;;
67272;SDS011;54190;49.770;9.250;2022-11-20T03:21:39;30.23;;;16.60;;
67272;SDS011;54190;49.770;9.250;2022-11-20T03:24:05;27.07;;;16.17;;
67272;SDS011;54190;49.770;9.250;2022-11-20T03:26:31;25.80;;;14.70;;
67272;SDS011;54190;49.770;9.250;2022-11-20T03:28:58;28.47;;;15.80;;
67272;SDS011;54190;49.770;9.250;2022-11-20T03:31:29;25.90;;;14.83;;
67272;SDS011;54190;49.770;9.250;2022-11-20T03:33:57;24.90;;;14.57;;
67272;SDS011;54190;49.770;9.250;2022-11-20T03:36:24;25.63;;;14.43;;
67272;SDS011;54190;49.770;9.250;2022-11-20T03:38:50;25.23;;;14.20;;
67272;SDS011;54190;49.770;9.250;2022-11-20T03:41:18;24.50;;;15.10;;
67272;SDS011;54190;49.770;9.250;2022-11-20T03:43:47;28.00;;;16.00;;
67272;SDS011;54190;49.770;9.250;2022-11-20T03:46:14;27.97;;;15.70;;
67272;SDS011;54190;49.770;9.250;2022-11-20T03:48:39;31.23;;;16.83;;
67272;SDS011;54190;49.770;9.250;2022-11-20T03:51:16;28.93;;;17.53;;
67272;SDS011;54190;49.770;9.250;2022-11-20T03:53:42;27.77;;;16.43;;
67272;SDS011;54190;49.770;9.250;2022-11-20T03:56:09;27.50;;;15.20;;
67272;SDS011;54190;49.770;9.250;2022-11-20T03:58:36;26.00;;;15.40;;
67272;SDS011;54190;49.770;9.250;2022-11-20T04:01:07;29.20;;;17.37;;
67272;SDS011;54190;49.770;9.250;2022-11-20T04:03:35;26.93;;;15.53;;
67272;SDS011;54190;49.770;9.250;2022-11-20T04:06:05;25.10;;;14.10;;
67272;SDS011;54190;49.770;9.250;2022-11-20T04:08:32;27.27;;;15.90;;
67272;SDS011;54190;49.770;9.250;2022-11-20T04:11:11;25.03;;;14.60;;
67272;SDS011;54190;49.770;9.250;2022-11-20T04:13:38;22.53;;;14.53;;
67272;SDS011;54190;49.770;9.250;2022-11-20T04:16:04;23.60;;;13.07;;
67272;SDS011;54190;49.770;9.250;2022-11-20T04:18:31;24.60;;;14.40;;
67272;SDS011;54190;49.770;9.250;2022-11-20T04:20:57;22.00;;;12.77;;
67272;SDS011;54190;49.770;9.250;2022-11-20T04:23:24;23.97;;;13.47;;
67272;SDS011;54190;49.770;9.250;2022-11-20T04:25:50;21.63;;;13.20;;
67272;SDS011;54190;49.770;9.250;2022-11-20T04:28:15;26.70;;;14.77;;
67272;SDS011;54190;49.770;9.250;2022-11-20T04:30:41;22.93;;;12.87;;
67272;SDS011;54190;49.770;9.250;2022-11-20T04:33:07;23.53;;;13.40;;
67272;SDS011;54190;49.770;9.250;2022-11-20T04:35:36;24.50;;;14.30;;
67272;SDS011;54190;49.770;9.250;2022-11-20T04:38:03;24.57;;;13.70;;
67272;SDS011;54190;49.770;9.250;2022-11-20T04:40:29;23.03;;;13.53;;
67272;SDS011;54190;49.770;9.250;2022-11-20T04:42:55;26.20;;;14.33;;
67272;SDS011;54190;49.770;9.250;2022-11-20T04:45:24;26.43;;;13.57;;
67272;SDS011;54190;49.770;9.250;2022-11-20T04:47:49;23.63;;;13.20;;
67272;SDS011;54190;49.770;9.250;2022-11-20T04:50:15;23.63;;;14.03;;
67272;SDS011;54190;49.770;9.250;2022-11-20T04:52:41;23.37;;;12.83;;
67272;SDS011;54190;49.770;9.250;2022-11-20T04:55:06;23.47;;;13.90;;
67272;SDS011;54190;49.770;9.250;2022-11-20T04:57:33;20.67;;;12.30;;
67272;SDS011;54190;49.770;9.250;2022-11-20T04:59:58;23.03;;;13.30;;
67272;SDS011;54190;49.770;9.250;2022-11-20T05:02:24;19.13;;;11.70;;
67272;SDS011;54190;49.770;9.250;2022-11-20T05:04:50;21.87;;;11.83;;
67272;SDS011;54190;49.770;9.250;2022-11-20T05:07:16;20.90;;;12.00;;
67272;SDS011;54190;49.770;9.250;2022-11-20T05:09:41;23.10;;;12.90;;
67272;SDS011;54190;49.770;9.250;2022-11-20T05:12:07;23.57;;;12.70;;
67272;SDS011;54190;49.770;9.250;2022-11-20T05:14:34;30.77;;;17.53;;
67272;SDS011;54190;49.770;9.250;2022-11-20T05:16:59;25.33;;;13.50;;
67272;SDS011;54190;49.770;9.250;2022-11-20T05:19:25;20.30;;;11.97;;
67272;SDS011;54190;49.770;9.250;2022-11-20T05:21:51;20.53;;;10.77;;
67272;SDS011;54190;49.770;9.250;2022-11-20T05:24:16;20.90;;;11.20;;
67272;SDS011;54190;49.770;9.250;2022-11-20T05:26:42;18.67;;;11.37;;
67272;SDS011;54190;49.770;9.250;2022-11-20T05:29:09;25.27;;;12.50;;
67272;SDS011;54190;49.770;9.250;2022-11-20T05:31:36;21.60;;;12.47;;
67272;SDS011;54190;49.770;9.250;2022-11-20T05:34:05;22.90;;;14.10;;
67272;SDS011;54190;49.770;9.250;2022-11-20T05:36:31;21.80;;;12.30;;
67272;SDS011;54190;49.770;9.250;2022-11-20T05:38:56;25.33;;;13.50;;
67272;SDS011;54190;49.770;9.250;2022-11-20T05:41:22;25.03;;;13.17;;
67272;SDS011;54190;49.770;9.250;2022-11-20T05:43:48;30.83;;;15.80;;
67272;SDS011;54190;49.770;9.250;2022-11-20T05:46:15;27.50;;;14.93;;
67272;SDS011;54190;49.770;9.250;2022-11-20T05:48:42;27.50;;;15.33;;
67272;SDS011;54190;49.770;9.250;2022-11-20T05:51:09;24.87;;;14.50;;
67272;SDS011;54190;49.770;9.250;2022-11-20T05:53:37;26.17;;;14.77;;
67272;SDS011;54190;49.770;9.250;2022-11-20T05:56:04;27.00;;;15.10;;
67272;SDS011;54190;49.770;9.250;2022-11-20T05:58:32;24.40;;;12.33;;
67272;SDS011;54190;49.770;9.250;2022-11-20T06:01:09;22.87;;;12.50;;
67272;SDS011;54190;49.770;9.250;2022-11-20T06:03:43;28.23;;;14.53;;
67272;SDS011;54190;49.770;9.250;2022-11-20T06:06:12;26.90;;;13.80;;
67272;SDS011;54190;49.770;9.250;2022-11-20T06:08:39;24.30;;;14.20;;
67272;SDS011;54190;49.770;9.250;2022-11-20T06:11:06;25.90;;;15.30;;
67272;SDS011;54190;49.770;9.250;2022-11-20T06:13:33;25.97;;;14.80;;
67272;SDS011;54190;49.770;9.250;2022-11-20T06:15:59;26.87;;;13.77;;
67272;SDS011;54190;49.770;9.250;2022-11-20T06:18:26;25.77;;;14.80;;
67272;SDS011;54190;49.770;9.250;2022-11-20T06:21:09;29.13;;;14.80;;
67272;SDS011;54190;49.770;9.250;2022-11-20T06:23:37;26.20;;;14.90;;
67272;SDS011;54190;49.770;9.250;2022-11-20T06:26:03;25.10;;;14.70;;
67272;SDS011;54190;49.770;9.250;2022-11-20T06:28:31;23.87;;;12.40;;
67272;SDS011;54190;49.770;9.250;2022-11-20T06:30:57;21.60;;;12.70;;
67272;SDS011;54190;49.770;9.250;2022-11-20T06:33:23;25.33;;;13.90;;
67272;SDS011;54190;49.770;9.250;2022-11-20T06:35:49;24.10;;;14.47;;
67272;SDS011;54190;49.770;9.250;2022-11-20T06:38:15;29.73;;;16.83;;
67272;SDS011;54190;49.770;9.250;2022-11-20T06:40:41;25.53;;;15.50;;
67272;SDS011;54190;49.770;9.250;2022-11-20T06:43:07;25.27;;;13.97;;
67272;SDS011;54190;49.770;9.250;2022-11-20T06:45:36;27.00;;;15.03;;
67272;SDS011;54190;49.770;9.250;2022-11-20T06:48:01;26.30;;;13.97;;
67272;SDS011;54190;49.770;9.250;2022-11-20T06:50:27;26.20;;;14.50;;
67272;SDS011;54190;49.770;9.250;2022-11-20T06:52:53;22.33;;;13.23;;
67272;SDS011;54190;49.770;9.250;2022-11-20T06:55:18;23.67;;;12.77;;
67272;SDS011;54190;49.770;9.250;2022-11-20T06:57:45;26.27;;;14.50;;
67272;SDS011;54190;49.770;9.250;2022-11-20T07:00:10;25.77;;;15.10;;
67272;SDS011;54190;49.770;9.250;2022-11-20T07:02:37;26.90;;;14.87;;
67272;SDS011;54190;49.770;9.250;2022-11-20T07:05:02;26.33;;;14.57;;
67272;SDS011;54190;49.770;9.250;2022-11-20T07:07:28;24.70;;;13.63;;
67272;SDS011;54190;49.770;9.250;2022-11-20T07:09:54;24.30;;;13.17;;
67272;SDS011;54190;49.770;9.250;2022-11-20T07:12:20;26.00;;;13.50;;
67272;SDS011;54190;49.770;9.250;2022-11-20T07:14:45;28.47;;;14.90;;
67272;SDS011;54190;49.770;9.250;2022-11-20T07:17:11;33.03;;;17.03;;
67272;SDS011;54190;49.770;9.250;2022-11-20T07:19:37;24.57;;;13.87;;
67272;SDS011;54190;49.770;9.250;2022-11-20T07:22:03;24.10;;;12.63;;
67272;SDS011;54190;49.770;9.250;2022-11-20T07:24:29;22.17;;;13.30;;
67272;SDS011;54190;49.770;9.250;2022-11-20T07:26:55;26.80;;;14.23;;
67272;SDS011;54190;49.770;9.250;2022-11-20T07:29:20;27.07;;;14.97;;
67272;SDS011;54190;49.770;9.250;2022-11-20T07:31:46;29.27;;;16.90;;
67272;SDS011;54190;49.770;9.250;2022-11-20T07:34:12;28.90;;;15.90;;
67272;SDS011;54190;49.770;9.250;2022-11-20T07:36:37;26.97;;;15.63;;
67272;SDS011;54190;49.770;9.250;2022-11-20T07:39:03;26.17;;;14.80;;
67272;SDS011;54190;49.770;9.250;2022-11-20T07:41:29;26.30;;;14.03;;
67272;SDS011;54190;49.770;9.250;2022-11-20T07:43:55;23.50;;;13.07;;
67272;SDS011;54190;49.770;9.250;2022-11-20T07:46:20;20.27;;;11.57;;
67272;SDS011;54190;49.770;9.250;2022-11-20T07:48:46;18.57;;;10.80;;
67272;SDS011;54190;49.770;9.250;2022-11-20T07:51:11;16.47;;;9.57;;
67272;SDS011;54190;49.770;9.250;2022-11-20T07:53:38;15.23;;;9.30;;
67272;SDS011;54190;49.770;9.250;2022-11-20T07:56:04;17.27;;;10.40;;
67272;SDS011;54190;49.770;9.250;2022-11-20T07:58:30;18.03;;;10.37;;
67272;SDS011;54190;49.770;9.250;2022-11-20T08:00:57;18.40;;;10.53;;
67272;SDS011;54190;49.770;9.250;2022-11-20T08:03:27;16.97;;;9.63;;
67272;SDS011;54190;49.770;9.250;2022-11-20T08:05:52;18.53;;;10.10;;
67272;SDS011;54190;49.770;9.250;2022-11-20T08:08:18;18.43;;;9.77;;
67272;SDS011;54190;49.770;9.250;2022-11-20T08:10:44;19.50;;;12.50;;
67272;SDS011;54190;49.770;9.250;2022-11-20T08:13:10;21.00;;;12.70;;
67272;SDS011;54190;49.770;9.250;2022-11-20T08:15:57;19.13;;;12.90;;
67272;SDS011;54190;49.770;9.250;2022-11-20T08:18:23;17.97;;;11.10;;
67272;SDS011;54190;49.770;9.250;2022-11-20T08:20:48;20.17;;;11.10;;
67272;SDS011;54190;49.770;9.250;2022-11-20T08:23:14;20.10;;;14.03;;
67272;SDS011;54190;49.770;9.250;2022-11-20T08:25:40;21.20;;;12.90;;
67272;SDS011;54190;49.770;9.250;2022-11-20T08:28:06;17.43;;;10.80;;
67272;SDS011;54190;49.770;9.250;2022-11-20T08:30:34;18.23;;;9.90;;
67272;SDS011;54190;49.770;9.250;2022-11-20T08:33:02;17.60;;;10.33;;
67272;SDS011;54190;49.770;9.250;2022-11-20T08:35:32;84.17;;;43.97;;
67272;SDS011;54190;49.770;9.250;2022-11-20T08:38:00;34.43;;;19.40;;
67272;SDS011;54190;49.770;9.250;2022-11-20T08:40:25;18.43;;;10.97;;
67272;SDS011;54190;49.770;9.250;2022-11-20T08:42:51;18.20;;;10.67;;
67272;SDS011;54190;49.770;9.250;2022-11-20T08:45:17;21.03;;;13.20;;
67272;SDS011;54190;49.770;9.250;2022-11-20T08:47:44;26.00;;;14.07;;
67272;SDS011;54190;49.770;9.250;2022-11-20T08:50:10;34.70;;;20.23;;
67272;SDS011;54190;49.770;9.250;2022-11-20T08:52:38;38.30;;;21.80;;
67272;SDS011;54190;49.770;9.250;2022-11-20T08:55:04;44.93;;;28.27;;
67272;SDS011;54190;49.770;9.250;2022-11-20T08:57:34;32.53;;;20.17;;
67272;SDS011;54190;49.770;9.250;2022-11-20T09:00:01;25.43;;;16.53;;
67272;SDS011;54190;49.770;9.250;2022-11-20T09:02:28;30.30;;;17.73;;
67272;SDS011;54190;49.770;9.250;2022-11-20T09:04:54;37.00;;;20.47;;
67272;SDS011;54190;49.770;9.250;2022-11-20T09:07:19;29.80;;;17.00;;
67272;SDS011;54190;49.770;9.250;2022-11-20T09:09:45;20.83;;;12.60;;
67272;SDS011;54190;49.770;9.250;2022-11-20T09:12:11;21.73;;;12.70;;
67272;SDS011;54190;49.770;9.250;2022-11-20T09:14:37;20.20;;;12.03;;
67272;SDS011;54190;49.770;9.250;2022-11-20T09:17:02;25.50;;;15.97;;
67272;SDS011;54190;49.770;9.250;2022-11-20T09:19:28;21.80;;;13.33;;
67272;SDS011;54190;49.770;9.250;2022-11-20T09:21:54;21.80;;;14.40;;
67272;SDS011;54190;49.770;9.250;2022-11-20T09:24:19;22.17;;;13.03;;
67272;SDS011;54190;49.770;9.250;2022-11-20T09:26:47;21.07;;;12.73;;
67272;SDS011;54190;49.770;9.250;2022-11-20T09:29:13;35.27;;;23.00;;
67272;SDS011;54190;49.770;9.250;2022-11-20T09:31:39;17.60;;;10.90;;
67272;SDS011;54190;49.770;9.250;2022-11-20T09:34:04;19.93;;;12.20;;
67272;SDS011;54190;49.770;9.250;2022-11-20T09:36:30;17.90;;;10.30;;
67272;SDS011;54190;49.770;9.250;2022-11-20T09:38:56;13.40;;;7.93;;
67272;SDS011;54190;49.770;9.250;2022-11-20T09:41:43;14.77;;;10.10;;
67272;SDS011;54190;49.770;9.250;2022-11-20T09:44:34;21.10;;;12.20;;
67272;SDS011;54190;49.770;9.250;2022-11-20T09:50:11;32.10;;;19.13;;
67272;SDS011;54190;49.770;9.250;2022-11-20T09:55:32;17.80;;;10.10;;
67272;SDS011;54190;49.770;9.250;2022-11-20T09:58:00;18.40;;;9.97;;
67272;SDS011;54190;49.770;9.250;2022-11-20T10:00:27;15.47;;;9.30;;
67272;SDS011;54190;49.770;9.250;2022-11-20T10:03:01;19.07;;;11.90;;
67272;SDS011;54190;49.770;9.250;2022-11-20T10:05:44;23.30;;;13.00;;
67272;SDS011;54190;49.770;9.250;2022-11-20T10:08:27;20.60;;;13.20;;
67272;SDS011;54190;49.770;9.250;2022-11-20T10:24:52;15.20;;;9.30;;
67272;SDS011;54190;49.770;9.250;2022-11-20T10:30:09;13.33;;;8.80;;
67272;SDS011;54190;49.770;9.250;2022-11-20T10:32:38;14.07;;;8.47;;
67272;SDS011;54190;49.770;9.250;2022-11-20T10:37:40;17.50;;;10.00;;
67272;SDS011;54190;49.770;9.250;2022-11-20T10:42:56;16.70;;;8.97;;
67272;SDS011;54190;49.770;9.250;2022-11-20T10:48:07;15.63;;;8.97;;
67272;SDS011;54190;49.770;9.250;2022-11-20T10:50:44;19.00;;;10.10;;
67272;SDS011;54190;49.770;9.250;2022-11-20T11:02:19;24.53;;;13.70;;
67272;SDS011;54190;49.770;9.250;2022-11-20T11:04:49;20.87;;;10.80;;
67272;SDS011;54190;49.770;9.250;2022-11-20T11:07:19;19.60;;;11.60;;
67272;SDS011;54190;49.770;9.250;2022-11-20T11:09:57;22.10;;;12.37;;
67272;SDS011;54190;49.770;9.250;2022-11-20T11:12:26;19.57;;;11.30;;
67272;SDS011;54190;49.770;9.250;2022-11-20T11:14:57;19.73;;;11.77;;
67272;SDS011;54190;49.770;9.250;2022-11-20T11:22:46;27.37;;;16.20;;
67272;SDS011;54190;49.770;9.250;2022-11-20T11:25:20;24.67;;;11.80;;
67272;SDS011;54190;49.770;9.250;2022-11-20T11:27:59;16.10;;;9.47;;
67272;SDS011;54190;49.770;9.250;2022-11-20T11:30:28;17.87;;;10.70;;
67272;SDS011;54190;49.770;9.250;2022-11-20T11:33:02;19.00;;;10.90;;
67272;SDS011;54190;49.770;9.250;2022-11-20T11:35:30;17.17;;;10.43;;
67272;SDS011;54190;49.770;9.250;2022-11-20T11:38:06;15.47;;;9.03;;
67272;SDS011;54190;49.770;9.250;2022-11-20T11:40:37;18.77;;;10.97;;
67272;SDS011;54190;49.770;9.250;2022-11-20T11:43:06;18.30;;;9.13;;
67272;SDS011;54190;49.770;9.250;2022-11-20T11:46:01;20.03;;;10.50;;
67272;SDS011;54190;49.770;9.250;2022-11-20T11:48:30;18.13;;;10.90;;
67272;SDS011;54190;49.770;9.250;2022-11-20T11:50:56;17.13;;;10.20;;
67272;SDS011;54190;49.770;9.250;2022-11-20T11:53:21;56.57;;;25.70;;
67272;SDS011;54190;49.770;9.250;2022-11-20T12:01:04;41.40;;;18.50;;
67272;SDS011;54190;49.770;9.250;2022-11-20T12:03:43;27.77;;;13.67;;
67272;SDS011;54190;49.770;9.250;2022-11-20T12:06:14;18.20;;;10.17;;
67272;SDS011;54190;49.770;9.250;2022-11-20T12:11:20;16.17;;;9.93;;
67272;SDS011;54190;49.770;9.250;2022-11-20T12:16:28;17.23;;;10.10;;
67272;SDS011;54190;49.770;9.250;2022-11-20T12:18:59;14.53;;;9.50;;
67272;SDS011;54190;49.770;9.250;2022-11-20T12:24:07;16.70;;;10.40;;
67272;SDS011;54190;49.770;9.250;2022-11-20T12:26:54;17.60;;;10.23;;
67272;SDS011;54190;49.770;9.250;2022-11-20T12:41:07;17.60;;;10.70;;
67272;SDS011;54190;49.770;9.250;2022-11-20T12:50:02;16.87;;;9.93;;
67272;SDS011;54190;49.770;9.250;2022-11-20T12:53:03;19.60;;;11.17;;
67272;SDS011;54190;49.770;9.250;2022-11-20T12:58:19;13.57;;;8.80;;
67272;SDS011;54190;49.770;9.250;2022-11-20T13:01:02;13.37;;;8.20;;
67272;SDS011;54190;49.770;9.250;2022-11-20T13:04:20;13.77;;;8.30;;
67272;SDS011;54190;49.770;9.250;2022-11-20T13:07:08;12.77;;;8.00;;
67272;SDS011;54190;49.770;9.250;2022-11-20T13:09:39;12.00;;;7.07;;
67272;SDS011;54190;49.770;9.250;2022-11-20T13:14:53;13.40;;;7.53;;
67272;SDS011;54190;49.770;9.250;2022-11-20T13:17:38;14.30;;;9.57;;
67272;SDS011;54190;49.770;9.250;2022-11-20T13:20:14;16.47;;;10.97;;
67272;SDS011;54190;49.770;9.250;2022-11-20T13:22:49;16.30;;;10.00;;
67272;SDS011;54190;49.770;9.250;2022-11-20T13:27:49;21.93;;;10.40;;
67272;SDS011;54190;49.770;9.250;2022-11-20T13:30:20;18.53;;;11.20;;
67272;SDS011;54190;49.770;9.250;2022-11-20T13:32:49;19.83;;;11.10;;
67272;SDS011;54190;49.770;9.250;2022-11-20T13:35:26;21.67;;;9.87;;
67272;SDS011;54190;49.770;9.250;2022-11-20T13:38:08;18.13;;;9.60;;
67272;SDS011;54190;49.770;9.250;2022-11-20T13:40:39;14.03;;;9.13;;
67272;SDS011;54190;49.770;9.250;2022-11-20T13:46:06;18.20;;;10.10;;
67272;SDS011;54190;49.770;9.250;2022-11-20T13:48:34;13.73;;;9.20;;
67272;SDS011;54190;49.770;9.250;2022-11-20T13:54:17;13.20;;;8.30;;
67272;SDS011;54190;49.770;9.250;2022-11-20T13:59:56;10.60;;;7.50;;
67272;SDS011;54190;49.770;9.250;2022-11-20T14:02:36;10.87;;;7.50;;
67272;SDS011;54190;49.770;9.250;2022-11-20T14:05:02;10.87;;;7.23;;
67272;SDS011;54190;49.770;9.250;2022-11-20T14:07:35;11.40;;;7.07;;
67272;SDS011;54190;49.770;9.250;2022-11-20T14:10:04;12.33;;;8.27;;
67272;SDS011;54190;49.770;9.250;2022-11-20T14:12:31;13.47;;;8.90;;
67272;SDS011;54190;49.770;9.250;2022-11-20T14:14:58;12.93;;;7.73;;
67272;SDS011;54190;49.770;9.250;2022-11-20T14:19:53;11.10;;;7.57;;
67272;SDS011;54190;49.770;9.250;2022-11-20T14:22:24;12.60;;;8.10;;
67272;SDS011;54190;49.770;9.250;2022-11-20T14:27:44;13.77;;;9.87;;
67272;SDS011;54190;49.770;9.250;2022-11-20T14:30:16;14.50;;;10.40;;
67272;SDS011;54190;49.770;9.250;2022-11-20T14:32:43;13.63;;;9.30;;
67272;SDS011;54190;49.770;9.250;2022-11-20T14:35:29;23.50;;;16.10;;
67272;SDS011;54190;49.770;9.250;2022-11-20T14:38:00;26.93;;;17.57;;
67272;SDS011;54190;49.770;9.250;2022-11-20T14:40:34;27.63;;;19.23;;
67272;SDS011;54190;49.770;9.250;2022-11-20T14:43:01;30.87;;;20.50;;
67272;SDS011;54190;49.770;9.250;2022-11-20T14:45:40;28.83;;;20.30;;
67272;SDS011;54190;49.770;9.250;2022-11-20T14:48:08;27.47;;;18.77;;
67272;SDS011;54190;49.770;9.250;2022-11-20T14:50:35;26.63;;;18.90;;
67272;SDS011;54190;49.770;9.250;2022-11-20T14:53:03;17.40;;;12.40;;
67272;SDS011;54190;49.770;9.250;2022-11-20T14:57:55;12.20;;;8.47;;
67272;SDS011;54190;49.770;9.250;2022-11-20T15:00:41;12.10;;;7.40;;
67272;SDS011;54190;49.770;9.250;2022-11-20T15:03:18;11.33;;;6.73;;
67272;SDS011;54190;49.770;9.250;2022-11-20T15:05:44;14.97;;;10.17;;
67272;SDS011;54190;49.770;9.250;2022-11-20T15:08:13;16.87;;;11.47;;
67272;SDS011;54190;49.770;9.250;2022-11-20T15:10:44;15.23;;;10.60;;
67272;SDS011;54190;49.770;9.250;2022-11-20T15:13:13;18.40;;;11.03;;
67272;SDS011;54190;49.770;9.250;2022-11-20T15:18:13;17.37;;;12.57;;
67272;SDS011;54190;49.770;9.250;2022-11-20T15:20:54;21.40;;;13.97;;
67272;SDS011;54190;49.770;9.250;2022-11-20T15:23:21;21.97;;;14.97;;
67272;SDS011;54190;49.770;9.250;2022-11-20T15:25:47;24.17;;;15.43;;
67272;SDS011;54190;49.770;9.250;2022-11-20T15:30:48;18.03;;;12.63;;
67272;SDS011;54190;49.770;9.250;2022-11-20T15:33:15;19.87;;;12.90;;
67272;SDS011;54190;49.770;9.250;2022-11-20T15:35:41;14.57;;;11.20;;
67272;SDS011;54190;49.770;9.250;2022-11-20T15:38:07;17.90;;;11.90;;
67272;SDS011;54190;49.770;9.250;2022-11-20T15:40:33;17.47;;;11.80;;
67272;SDS011;54190;49.770;9.250;2022-11-20T15:42:59;17.73;;;12.07;;
67272;SDS011;54190;49.770;9.250;2022-11-20T15:45:28;15.57;;;11.00;;
67272;SDS011;54190;49.770;9.250;2022-11-20T15:47:57;14.60;;;10.30;;
67272;SDS011;54190;49.770;9.250;2022-11-20T15:50:24;15.90;;;10.33;;
67272;SDS011;54190;49.770;9.250;2022-11-20T15:52:55;14.57;;;9.83;;
67272;SDS011;54190;49.770;9.250;2022-11-20T15:55:21;12.40;;;8.97;;
67272;SDS011;54190;49.770;9.250;2022-11-20T15:57:47;14.27;;;9.00;;
67272;SDS011;54190;49.770;9.250;2022-11-20T16:00:13;16.30;;;10.33;;
67272;SDS011;54190;49.770;9.250;2022-11-20T16:02:39;16.43;;;9.67;;
67272;SDS011;54190;49.770;9.250;2022-11-20T16:05:05;15.90;;;8.83;;
67272;SDS011;54190;49.770;9.250;2022-11-20T16:07:36;16.00;;;8.23;;
67272;SDS011;54190;49.770;9.250;2022-11-20T16:10:02;11.53;;;7.77;;
67272;SDS011;54190;49.770;9.250;2022-11-20T16:12:28;15.67;;;8.00;;
67272;SDS011;54190;49.770;9.250;2022-11-20T16:15:12;16.67;;;10.40;;
67272;SDS011;54190;49.770;9.250;2022-11-20T16:17:57;23.17;;;15.90;;
67272;SDS011;54190;49.770;9.250;2022-11-20T16:20:22;34.73;;;16.20;;
67272;SDS011;54190;49.770;9.250;2022-11-20T16:22:48;32.70;;;19.60;;
67272;SDS011;54190;49.770;9.250;2022-11-20T16:25:16;36.83;;;16.10;;
67272;SDS011;54190;49.770;9.250;2022-11-20T16:27:41;26.00;;;14.90;;